createdAt,value
2022-08-22T19:49:50.932Z,29.88
2022-08-22T19:52:24.010Z,31.97
2022-08-22T19:55:30.953Z,31.27
2022-08-22T19:58:08.198Z,22.95
2022-08-22T20:00:51.543Z,18.08
2022-08-22T20:03:22.954Z,21.30
2022-08-22T20:06:13.766Z,22.52
2022-08-22T20:09:11.854Z,18.30
2022-08-22T20:12:02.464Z,13.35
2022-08-22T20:14:36.129Z,12.80
2022-08-22T20:22:49.085Z,10.90
2022-08-22T20:25:42.256Z,10.43
2022-08-22T20:28:26.091Z,9.98
2022-08-22T20:31:00.536Z,9.45
2022-08-22T20:33:38.620Z,12.32
2022-08-22T20:36:18.614Z,10.70
2022-08-22T20:39:10.966Z,9.85
2022-08-22T20:41:43.796Z,9.52
2022-08-22T20:44:18.467Z,10.07
2022-08-22T20:46:55.260Z,10.52
2022-08-22T20:49:46.824Z,10.38
2022-08-22T20:52:19.711Z,8.88
2022-08-22T20:54:58.143Z,9.73
2022-08-22T20:57:32.049Z,9.38
2022-08-22T21:00:24.012Z,10.02
2022-08-22T21:03:09.139Z,9.57
2022-08-22T21:05:41.957Z,9.52
2022-08-22T21:08:29.016Z,9.43
2022-08-22T21:11:20.604Z,9.82
2022-08-22T21:13:52.911Z,9.30
2022-08-22T21:16:33.430Z,9.43
2022-08-22T21:19:03.497Z,8.85
2022-08-22T21:21:34.058Z,9.50
2022-08-22T21:24:11.324Z,9.60
2022-08-22T21:26:56.621Z,9.40
2022-08-22T21:29:33.968Z,9.88
2022-08-22T21:32:30.687Z,9.63
2022-08-22T21:35:01.660Z,8.80
2022-08-22T21:37:39.985Z,9.15
2022-08-22T21:40:18.542Z,10.27
2022-08-22T21:43:07.928Z,9.32
2022-08-22T21:45:44.440Z,8.40
2022-08-22T21:48:36.062Z,9.95
2022-08-22T21:51:43.446Z,8.95
2022-08-22T21:54:40.260Z,10.30
2022-08-22T21:57:13.841Z,10.00
2022-08-22T21:59:58.916Z,10.15
2022-08-22T22:02:40.280Z,9.50
2022-08-22T22:05:15.987Z,8.27
2022-08-22T22:07:46.339Z,9.60
2022-08-22T22:10:16.574Z,9.70
2022-08-22T22:12:46.405Z,9.40
2022-08-22T22:15:27.264Z,8.27
2022-08-22T22:17:58.208Z,8.20
2022-08-22T22:20:27.728Z,9.05
2022-08-22T22:22:58.110Z,9.00
2022-08-22T22:25:40.286Z,7.80
2022-08-22T22:28:29.881Z,7.32
2022-08-22T22:30:56.833Z,8.30
2022-08-22T22:33:31.602Z,8.68
2022-08-22T22:36:08.831Z,7.68
2022-08-22T22:38:40.089Z,9.77
2022-08-22T22:41:08.088Z,9.85
2022-08-22T22:43:35.205Z,9.95
2022-08-22T22:46:11.176Z,9.07
2022-08-22T22:48:39.810Z,9.65
2022-08-22T22:51:09.463Z,10.27
2022-08-22T22:53:45.801Z,10.03
2022-08-22T22:56:22.358Z,10.60
2022-08-22T22:59:00.696Z,9.98
2022-08-22T23:02:01.538Z,9.63
2022-08-22T23:04:29.482Z,9.43
2022-08-22T23:07:08.356Z,9.23
2022-08-22T23:09:44.905Z,9.55
2022-08-22T23:12:13.367Z,8.48
2022-08-22T23:14:48.887Z,8.90
2022-08-22T23:17:24.620Z,8.80
2022-08-22T23:19:57.644Z,9.83
2022-08-22T23:22:28.342Z,8.70
2022-08-22T23:24:59.054Z,8.45
2022-08-22T23:27:26.428Z,8.98
2022-08-22T23:29:53.710Z,8.52
2022-08-22T23:32:26.610Z,9.32
2022-08-22T23:34:56.985Z,9.10
2022-08-22T23:37:23.991Z,8.75
2022-08-22T23:39:51.248Z,8.90
2022-08-22T23:42:20.972Z,8.63
2022-08-22T23:44:51.188Z,7.95
2022-08-22T23:47:21.009Z,8.02
2022-08-22T23:49:58.398Z,8.88
2022-08-22T23:52:32.465Z,8.48
2022-08-22T23:55:15.984Z,8.93
